Hopa, Turkey

12:27 AM +03 on January 18, 2017 (GMT +0300)
Batumi | | Change Station

Elev 105 ft 41.61 °N, 41.60 °E | Updated 27 minutes ago

Partly Cloudy
Partly Cloudy
48 °F
Feels Like 48 °F
N
15
Wind Variable Wind from ESE

Today
High -- | Low -- °F
--% Chance of Precip.
Yesterday
High -- | Low -- °F
Precip. -- in
Pressure 30.18 in
Visibility -9999.0 miles
Clouds
Dew Point 32 °F
Humidity 54%
Rainfall 0.00 in
Snow Depth Not available.
7:36 AM 5:13 PM
Waning Gibbous, 69% visible
METAR UGSB 172100Z AUTO 12013KT CAVOK 09/M00 Q1022 R13/CLRD70 NOSIG
Pressure 30.18 in
Visibility -9999.0 miles
Clouds
Dew Point 32 °F
Humidity 54%
Rainfall 0.00 in
Snow Depth Not available.
7:36 AM 5:13 PM
Waning Gibbous, 69% visible
METAR UGSB 172100Z AUTO 12013KT CAVOK 09/M00 Q1022 R13/CLRD70 NOSIG

Get Your Daily Forecast Email!

Thanks for signing up!

Be on the lookout for a verification email in your inbox.

You'll start receiving the daily forecast at 8 AM.

×

10-Day Weather Forecast

×

Almanac

Astronomy

Jan. 18, 2017 Rise Set
Actual Time
Civil Twilight
Nautical Twilight
Astronomical Twilight
Moon
Length of Visible Light
Length of Day
Tomorrow will be .
, % of the Moon is Illuminated

Today's Extremes

Country Highs Country Lows

Community

WunderPhotos

Upload Photos

1,962,540 photos uploaded!

WunderBlog® & News

Nearby

Air Quality

  Air Quality AQ Index Pollutant
Not available.

Snow Depth

Station Depth Elevation

Earthquake Activity

City Distance Mag. Time & Date
Minimum magnitude displayed is 2.5.

Coastal Water Temperatures

Place Temperature

Stations

Nearby Weather Stations

Station Location Temp. Windchill Dew Point Humidity Wind Precip. Elev Updated Type